Time;durP1;ratioP1;P1;durP2;ratioP2;P2;SDS_P1;SDS_P2;PMS_P1;PMS_P2;Temp;Humidity;BMP_temperature;BMP_pressure;BME280_temperature;BME280_humidity;BME280_pressure;Samples;Min_cycle;Max_cycle;Signal;HPM_P1;HPM_P2
2023/09/03 00:02:02;;;;;;;6.05;2.67;;;;;;;15.05;100.00;97952.13;4973833;28;20419;-59
2023/09/03 00:04:29;;;;;;;3.72;2.10;;;;;;;15.06;100.00;97957.31;4974920;28;20062;-61
2023/09/03 00:06:56;;;;;;;5.22;2.60;;;;;;;15.02;100.00;97961.66;5001804;28;20042;-60
2023/09/03 00:09:22;;;;;;;5.28;2.75;;;;;;;15.02;100.00;97958.09;4976569;28;20043;-61
2023/09/03 00:11:49;;;;;;;8.05;3.03;;;;;;;15.03;100.00;97952.38;4971390;28;20047;-60
2023/09/03 00:14:15;;;;;;;6.28;2.28;;;;;;;15.04;100.00;97953.22;4975160;28;20058;-60
2023/09/03 00:16:42;;;;;;;4.10;2.35;;;;;;;15.07;100.00;97956.22;4964822;28;20049;-60
2023/09/03 00:19:09;;;;;;;6.28;2.40;;;;;;;15.14;100.00;97950.50;4986878;28;20038;-61
2023/09/03 00:21:35;;;;;;;3.67;2.10;;;;;;;15.28;100.00;97941.81;4966943;28;20035;-60
2023/09/03 00:24:02;;;;;;;4.95;2.40;;;;;;;15.15;100.00;97946.69;4975363;28;20038;-60
2023/09/03 00:26:28;;;;;;;4.97;2.20;;;;;;;15.02;100.00;97945.28;4988681;28;20043;-60
2023/09/03 00:28:58;;;;;;;4.78;2.53;;;;;;;14.99;100.00;97951.28;4959582;28;20042;-60
2023/09/03 00:31:26;;;;;;;5.38;2.30;;;;;;;14.93;100.00;97955.09;4967437;28;20043;-60
2023/09/03 00:33:53;;;;;;;5.55;2.60;;;;;;;14.98;100.00;97963.28;4967916;28;20133;-60
2023/09/03 00:36:20;;;;;;;4.82;2.35;;;;;;;14.92;100.00;97954.25;4977445;28;20059;-60
2023/09/03 00:38:49;;;;;;;5.90;2.30;;;;;;;14.91;100.00;97960.81;4972087;28;20054;-60
2023/09/03 00:41:16;;;;;;;5.93;2.55;;;;;;;14.87;100.00;97959.69;4970127;28;20527;-60
2023/09/03 00:43:43;;;;;;;4.00;2.38;;;;;;;14.88;100.00;97971.41;4982173;28;20272;-61
2023/09/03 00:46:10;;;;;;;6.95;2.97;;;;;;;14.90;100.00;97978.25;4986906;28;20105;-60
2023/09/03 00:48:38;;;;;;;4.90;2.47;;;;;;;14.88;100.00;97966.78;4970385;28;20445;-60
2023/09/03 00:51:07;;;;;;;8.52;2.88;;;;;;;14.87;100.00;97969.75;4991512;28;20141;-58
2023/09/03 00:53:36;;;;;;;5.88;2.60;;;;;;;14.84;100.00;97973.84;4961278;28;20560;-60
2023/09/03 00:56:03;;;;;;;4.57;2.75;;;;;;;14.91;100.00;97982.59;4972218;28;20046;-61
2023/09/03 00:58:30;;;;;;;8.65;2.88;;;;;;;15.01;100.00;97970.94;4971491;28;20146;-60
2023/09/03 01:00:57;;;;;;;5.32;2.40;;;;;;;15.02;100.00;97964.38;4993179;28;20096;-59
2023/09/03 01:03:26;;;;;;;4.93;2.50;;;;;;;15.01;100.00;97964.66;4990241;28;20033;-60
2023/09/03 01:05:52;;;;;;;3.78;2.33;;;;;;;14.92;100.00;97970.59;4987916;28;20510;-60
2023/09/03 01:08:19;;;;;;;4.88;2.42;;;;;;;14.94;100.00;97970.34;4981405;28;20058;-60
2023/09/03 01:10:49;;;;;;;7.45;2.90;;;;;;;14.88;100.00;97971.41;4988262;28;20043;-60
2023/09/03 01:13:43;;;;;;;5.15;2.55;;;;;;;14.90;100.00;97975.53;4974801;28;20573;-59
2023/09/03 01:16:31;;;;;;;8.82;3.20;;;;;;;14.92;100.00;97978.78;4978498;28;20081;-59
2023/09/03 01:19:04;;;;;;;4.95;2.50;;;;;;;15.00;100.00;97977.44;4978548;28;20521;-59
2023/09/03 01:21:44;;;;;;;4.50;2.50;;;;;;;15.11;100.00;97977.50;4973038;28;20043;-59
2023/09/03 01:24:39;;;;;;;6.22;2.80;;;;;;;15.30;100.00;97964.22;4974964;28;20037;-59
2023/09/03 01:27:25;;;;;;;5.05;2.90;;;;;;;15.18;100.00;97972.59;4976342;28;20051;-60
2023/09/03 01:29:53;;;;;;;7.05;2.70;;;;;;;15.15;100.00;97982.16;4981242;28;20049;-60
2023/09/03 01:32:20;;;;;;;5.22;2.60;;;;;;;15.09;100.00;97988.69;4958805;28;20046;-59
2023/09/03 01:34:49;;;;;;;6.78;3.13;;;;;;;15.11;100.00;97991.16;4981065;28;20039;-60
2023/09/03 01:37:17;;;;;;;6.63;2.72;;;;;;;15.16;100.00;97994.72;4972592;28;20053;-58
2023/09/03 01:39:45;;;;;;;6.47;3.10;;;;;;;15.28;100.00;97986.31;4982210;28;20062;-60
2023/09/03 01:42:11;;;;;;;4.40;2.45;;;;;;;15.33;100.00;97990.94;4994185;28;20098;-60
2023/09/03 01:44:39;;;;;;;5.00;2.67;;;;;;;15.40;100.00;97988.78;4966256;28;20093;-60
2023/09/03 01:47:27;;;;;;;4.50;2.20;;;;;;;15.39;100.00;97992.59;4982306;28;20072;-59
2023/09/03 01:50:17;;;;;;;6.70;2.83;;;;;;;15.30;100.00;97992.28;4979871;28;20383;-59
2023/09/03 01:52:54;;;;;;;5.90;2.50;;;;;;;15.15;100.00;97997.72;4969999;28;20039;-59
2023/09/03 01:55:22;;;;;;;5.72;2.50;;;;;;;15.05;100.00;98003.94;4977374;28;20051;-60
2023/09/03 01:57:55;;;;;;;4.15;2.53;;;;;;;14.95;100.00;98007.44;4978362;28;20066;-60
2023/09/03 02:00:22;;;;;;;6.72;2.88;;;;;;;14.93;100.00;98013.13;4979933;28;20042;-60
2023/09/03 02:02:51;;;;;;;6.82;3.00;;;;;;;14.82;100.00;98020.44;4968885;28;20037;-61
2023/09/03 02:05:18;;;;;;;4.65;2.60;;;;;;;14.72;100.00;98028.53;4941731;28;20070;-59
2023/09/03 02:07:45;;;;;;;5.32;2.40;;;;;;;14.73;100.00;98030.19;4978871;28;20045;-59
2023/09/03 02:10:11;;;;;;;5.55;2.53;;;;;;;14.63;100.00;98028.19;4933426;28;20047;-59
2023/09/03 02:12:38;;;;;;;6.22;2.78;;;;;;;14.59;100.00;98027.09;4947275;28;20057;-60
2023/09/03 02:15:05;;;;;;;4.53;2.72;;;;;;;14.61;100.00;98038.56;4992322;28;20038;-59
2023/09/03 02:17:32;;;;;;;5.65;2.90;;;;;;;14.58;100.00;98036.34;4968980;28;20137;-60
2023/09/03 02:19:58;;;;;;;5.43;2.38;;;;;;;14.66;100.00;98022.22;4972185;28;20034;-60
2023/09/03 02:22:25;;;;;;;5.95;2.97;;;;;;;14.79;100.00;98015.53;4973548;28;20121;-59
2023/09/03 02:24:52;;;;;;;5.47;3.15;;;;;;;14.61;100.00;98030.38;4987049;28;20040;-60
2023/09/03 02:27:18;;;;;;;4.85;2.75;;;;;;;14.53;100.00;98042.56;4988637;28;20088;-60
2023/09/03 02:29:45;;;;;;;6.68;3.08;;;;;;;14.49;100.00;98046.91;4977285;28;20123;-59
2023/09/03 02:32:12;;;;;;;5.88;2.42;;;;;;;14.47;100.00;98049.06;4975282;28;20045;-61
2023/09/03 02:34:39;;;;;;;6.03;3.17;;;;;;;14.39;100.00;98049.56;4974934;28;20051;-59
2023/09/03 02:37:06;;;;;;;4.63;2.42;;;;;;;14.45;100.00;98048.53;4974616;28;20070;-59
2023/09/03 02:39:33;;;;;;;5.43;2.72;;;;;;;14.45;100.00;98040.34;4973502;28;20149;-60
2023/09/03 02:41:59;;;;;;;4.45;2.65;;;;;;;14.46;100.00;98046.63;4972135;28;20117;-60
2023/09/03 02:44:26;;;;;;;8.65;3.00;;;;;;;14.35;100.00;98046.53;5002793;28;20116;-60
2023/09/03 02:46:52;;;;;;;7.85;2.47;;;;;;;14.47;100.00;98035.47;4999141;28;20043;-60
2023/09/03 02:49:20;;;;;;;4.38;2.65;;;;;;;14.35;100.00;98045.72;4964055;28;20070;-59
2023/09/03 02:51:47;;;;;;;6.20;2.83;;;;;;;14.29;100.00;98061.19;4975744;28;20061;-60
2023/09/03 02:54:13;;;;;;;4.88;2.72;;;;;;;14.27;100.00;98052.47;4978056;28;20445;-60
2023/09/03 02:56:40;;;;;;;6.15;3.08;;;;;;;14.31;100.00;98061.75;4972504;28;20047;-59
2023/09/03 02:59:06;;;;;;;4.68;2.42;;;;;;;14.35;100.00;98062.06;4976697;28;20540;-60
2023/09/03 03:01:33;;;;;;;5.95;2.97;;;;;;;14.28;100.00;98067.72;4979240;28;20039;-60
2023/09/03 03:04:01;;;;;;;7.90;3.05;;;;;;;14.23;100.00;98073.13;4971763;28;20042;-60
2023/09/03 03:06:28;;;;;;;7.63;2.63;;;;;;;14.15;100.00;98077.13;4983920;28;20108;-60
2023/09/03 03:08:55;;;;;;;7.20;2.80;;;;;;;14.08;100.00;98079.25;4985269;28;20070;-59
2023/09/03 03:11:23;;;;;;;4.15;2.50;;;;;;;14.09;100.00;98084.44;4998508;28;20057;-60
2023/09/03 03:13:54;;;;;;;5.57;3.38;;;;;;;14.08;100.00;98071.09;4968316;28;20428;-59
2023/09/03 03:16:24;;;;;;;5.22;2.88;;;;;;;14.03;100.00;98085.47;4972814;28;20042;-60
2023/09/03 03:18:52;;;;;;;5.03;2.85;;;;;;;14.09;100.00;98087.16;4971085;28;20070;-59
2023/09/03 03:21:23;;;;;;;5.40;3.20;;;;;;;14.11;100.00;98076.03;4971689;28;20057;-60
2023/09/03 03:23:55;;;;;;;4.88;2.65;;;;;;;14.04;100.00;98073.47;4973143;28;20054;-59
2023/09/03 03:26:29;;;;;;;6.40;3.00;;;;;;;13.93;100.00;98083.44;4972137;28;20058;-59
2023/09/03 03:28:56;;;;;;;7.00;2.88;;;;;;;13.89;100.00;98085.88;4972011;28;20047;-59
2023/09/03 03:31:23;;;;;;;7.50;2.97;;;;;;;13.86;100.00;98093.75;4987240;28;20126;-58
2023/09/03 03:33:52;;;;;;;5.13;3.25;;;;;;;13.89;100.00;98101.38;4972487;28;20054;-60
2023/09/03 03:36:22;;;;;;;5.57;2.60;;;;;;;13.90;100.00;98101.13;4996428;28;20049;-59
2023/09/03 03:38:49;;;;;;;6.38;3.22;;;;;;;13.90;100.00;98092.97;4986891;28;20529;-60
2023/09/03 03:41:19;;;;;;;5.90;2.97;;;;;;;13.83;100.00;98103.25;4980779;28;20050;-60
2023/09/03 03:43:50;;;;;;;5.00;2.90;;;;;;;13.84;100.00;98106.78;4972225;28;20118;-60
2023/09/03 03:46:20;;;;;;;7.25;2.90;;;;;;;13.89;100.00;98109.53;4989047;28;20054;-59
2023/09/03 03:48:49;;;;;;;;;;;;;;;13.86;100.00;98108.16;4973629;28;20042;-59
2023/09/03 03:51:18;;;;;;;6.57;3.03;;;;;;;13.85;100.00;98106.53;4989964;28;19976;-59
2023/09/03 03:53:45;;;;;;;9.27;3.35;;;;;;;13.82;100.00;98109.75;4989917;28;20131;-60
2023/09/03 03:56:12;;;;;;;4.18;2.65;;;;;;;13.78;100.00;98127.66;4942904;28;20050;-59
2023/09/03 03:58:41;;;;;;;5.45;2.95;;;;;;;13.79;100.00;98134.78;4979250;28;20036;-59
2023/09/03 04:01:18;;;;;;;5.25;3.10;;;;;;;13.79;100.00;98138.28;4983434;28;20046;-61
2023/09/03 04:03:49;;;;;;;8.00;3.13;;;;;;;13.76;100.00;98133.38;4998927;28;20555;-59
2023/09/03 04:06:17;;;;;;;6.93;3.00;;;;;;;13.88;100.00;98122.34;4979653;28;20053;-60
2023/09/03 04:08:45;;;;;;;6.15;3.10;;;;;;;13.84;100.00;98123.94;5011800;28;20045;-59
2023/09/03 04:11:13;;;;;;;5.80;3.03;;;;;;;13.81;100.00;98124.44;4982620;28;20046;-60
2023/09/03 04:13:41;;;;;;;5.68;3.38;;;;;;;13.83;100.00;98135.91;4978095;28;20087;-60
2023/09/03 04:16:10;;;;;;;5.07;3.17;;;;;;;13.95;100.00;98133.03;5011864;28;20049;-60
2023/09/03 04:18:38;;;;;;;5.78;3.28;;;;;;;13.97;100.00;98116.44;4988040;28;20047;-59
2023/09/03 04:21:04;;;;;;;5.90;3.38;;;;;;;13.94;100.00;98116.94;4976020;28;20042;-59
2023/09/03 04:23:32;;;;;;;5.60;2.85;;;;;;;13.97;100.00;98121.91;4985272;28;20060;-58
2023/09/03 04:26:01;;;;;;;4.95;2.78;;;;;;;13.93;100.00;98131.66;4969622;28;20066;-59
2023/09/03 04:28:31;;;;;;;5.75;3.25;;;;;;;13.87;100.00;98123.44;5013252;28;20058;-60
2023/09/03 04:30:59;;;;;;;5.38;3.03;;;;;;;13.90;100.00;98139.22;4996641;28;20066;-59
2023/09/03 04:33:30;;;;;;;6.53;2.90;;;;;;;13.91;100.00;98151.78;4976614;28;20080;-59
2023/09/03 04:35:59;;;;;;;4.75;2.90;;;;;;;14.05;100.00;98149.47;4969196;28;20047;-59
2023/09/03 04:38:28;;;;;;;6.28;3.00;;;;;;;14.12;100.00;98141.09;4973153;28;20061;-59
2023/09/03 04:40:56;;;;;;;6.00;2.83;;;;;;;14.11;100.00;98147.63;4966704;28;20085;-59
2023/09/03 04:43:24;;;;;;;7.28;3.15;;;;;;;14.11;100.00;98142.19;4983200;28;20046;-59
2023/09/03 04:45:53;;;;;;;6.68;3.42;;;;;;;14.08;100.00;98153.56;4974041;28;20391;-59
2023/09/03 04:48:21;;;;;;;6.60;2.90;;;;;;;14.18;100.00;98161.03;5010133;28;20123;-60
2023/09/03 04:50:49;;;;;;;5.70;2.90;;;;;;;14.23;100.00;98158.38;4964889;28;20051;-59
2023/09/03 04:53:15;;;;;;;5.20;2.90;;;;;;;14.08;100.00;98134.53;4980937;28;20042;-59
2023/09/03 04:55:44;;;;;;;5.95;3.22;;;;;;;14.10;100.00;98146.00;4969946;28;20162;-59
2023/09/03 04:58:10;;;;;;;5.22;2.90;;;;;;;14.09;100.00;98163.41;4978600;28;20129;-60
2023/09/03 05:00:37;;;;;;;5.60;3.38;;;;;;;14.13;100.00;98170.00;4974811;28;20066;-59
2023/09/03 05:03:06;;;;;;;5.38;2.95;;;;;;;14.15;100.00;98164.28;4962008;28;20039;-60
2023/09/03 05:05:39;;;;;;;5.18;3.05;;;;;;;14.11;100.00;98160.44;5001146;28;20098;-56
2023/09/03 05:08:08;;;;;;;4.97;2.97;;;;;;;14.09;100.00;98162.59;4985679;28;20553;-58
2023/09/03 05:10:39;;;;;;;6.40;2.83;;;;;;;14.15;100.00;98173.28;4981499;28;20116;-59
2023/09/03 05:13:08;;;;;;;5.10;2.92;;;;;;;14.26;100.00;98178.84;4974108;28;20070;-58
2023/09/03 05:15:36;;;;;;;6.20;2.97;;;;;;;14.31;100.00;98182.44;4986821;28;20042;-58
2023/09/03 05:18:04;;;;;;;4.22;2.55;;;;;;;14.48;100.00;98177.97;4989266;28;20054;-57
2023/09/03 05:20:32;;;;;;;7.57;3.53;;;;;;;14.49;100.00;98172.25;4982126;28;20062;-57
2023/09/03 05:22:59;;;;;;;5.43;2.78;;;;;;;14.52;100.00;98165.47;4970508;28;20034;-58
2023/09/03 05:25:26;;;;;;;6.68;3.08;;;;;;;14.59;100.00;98170.72;4974763;28;20061;-57
2023/09/03 05:27:53;;;;;;;4.75;2.63;;;;;;;14.60;100.00;98159.56;4982245;28;20109;-56
2023/09/03 05:30:20;;;;;;;7.10;3.03;;;;;;;14.63;100.00;98167.19;4991232;28;20090;-58
2023/09/03 05:32:46;;;;;;;4.30;2.70;;;;;;;14.63;100.00;98161.75;4971752;28;20510;-57
2023/09/03 05:35:13;;;;;;;4.68;2.85;;;;;;;14.58;100.00;98167.16;4995714;28;20053;-55
2023/09/03 05:37:40;;;;;;;7.05;2.53;;;;;;;14.59;100.00;98159.81;4972186;28;20045;-55
2023/09/03 05:40:08;;;;;;;5.53;2.45;;;;;;;14.55;100.00;98162.22;4992652;28;20058;-56
2023/09/03 05:42:34;;;;;;;5.25;2.67;;;;;;;14.52;100.00;98154.56;4971082;28;20221;-50
2023/09/03 05:45:01;;;;;;;5.38;2.80;;;;;;;14.55;100.00;98163.06;4968713;28;20063;-55
2023/09/03 05:47:28;;;;;;;4.45;2.85;;;;;;;14.61;100.00;98172.09;4970692;28;20077;-55
2023/09/03 05:49:56;;;;;;;6.15;2.90;;;;;;;14.70;100.00;98162.38;4974291;28;20089;-57
2023/09/03 05:52:24;;;;;;;5.50;3.08;;;;;;;14.76;100.00;98167.84;4967947;28;20067;-55
2023/09/03 05:54:51;;;;;;;4.47;2.75;;;;;;;14.88;100.00;98159.53;4992082;28;20537;-55
2023/09/03 05:57:18;;;;;;;5.43;2.83;;;;;;;15.03;100.00;98161.53;4966217;28;20568;-51
2023/09/03 05:59:52;;;;;;;5.47;2.83;;;;;;;15.18;100.00;98144.44;4957268;28;20053;-52
2023/09/03 06:02:19;;;;;;;5.72;2.80;;;;;;;15.30;100.00;98136.09;4961226;28;20291;-53
2023/09/03 06:04:46;;;;;;;4.88;2.70;;;;;;;15.37;100.00;98122.22;4994989;28;20853;-49
2023/09/03 06:07:13;;;;;;;5.80;2.38;;;;;;;15.36;100.00;98131.47;4984178;28;20057;-62
2023/09/03 06:09:40;;;;;;;6.28;2.90;;;;;;;15.39;100.00;98133.66;4964806;28;20118;-62
2023/09/03 06:12:06;;;;;;;5.70;2.72;;;;;;;15.48;100.00;98130.16;4968467;28;20108;-62
2023/09/03 06:14:33;;;;;;;5.72;3.10;;;;;;;15.45;100.00;98132.63;4975661;28;20057;-62
2023/09/03 06:17:00;;;;;;;6.10;2.60;;;;;;;15.52;100.00;98144.09;4978389;28;20050;-62
2023/09/03 06:19:27;;;;;;;5.45;2.30;;;;;;;15.59;100.00;98138.44;4970090;28;20052;-62
2023/09/03 06:21:54;;;;;;;5.28;2.92;;;;;;;15.66;100.00;98144.44;4980780;28;20074;-61
2023/09/03 06:24:20;;;;;;;4.72;2.80;;;;;;;15.76;100.00;98153.75;4977225;28;20044;-62
2023/09/03 06:26:47;;;;;;;4.22;2.42;;;;;;;15.81;100.00;98165.53;4972993;28;20039;-62
2023/09/03 06:29:13;;;;;;;5.10;2.83;;;;;;;15.95;100.00;98168.63;4972017;28;20054;-62
2023/09/03 06:31:40;;;;;;;5.57;3.00;;;;;;;16.14;100.00;98165.38;4927420;28;20054;-62
2023/09/03 06:34:07;;;;;;;4.65;2.70;;;;;;;16.21;100.00;98165.97;4952183;28;20069;-61
2023/09/03 06:36:33;;;;;;;5.88;2.42;;;;;;;16.37;100.00;98166.00;4999222;28;20697;-61
2023/09/03 06:39:00;;;;;;;4.18;2.47;;;;;;;16.46;100.00;98161.63;4973921;28;20038;-62
2023/09/03 06:41:26;;;;;;;4.97;2.50;;;;;;;16.52;100.00;98171.47;4980816;28;20521;-62
2023/09/03 06:43:54;;;;;;;4.20;2.47;;;;;;;16.61;100.00;98171.78;4974365;28;20062;-62
2023/09/03 06:46:21;;;;;;;4.43;2.50;;;;;;;16.73;100.00;98173.44;4994764;28;20587;-62
2023/09/03 06:48:47;;;;;;;5.13;2.47;;;;;;;16.88;100.00;98175.34;4977553;28;20050;-62
2023/09/03 06:51:18;;;;;;;5.72;2.80;;;;;;;16.90;100.00;98175.88;4983511;28;20485;-62
2023/09/03 06:53:45;;;;;;;5.30;2.50;;;;;;;16.98;100.00;98175.31;4990310;28;20414;-62
2023/09/03 06:56:11;;;;;;;5.43;2.60;;;;;;;16.99;100.00;98182.44;4987490;28;20046;-62
2023/09/03 06:58:38;;;;;;;6.82;2.80;;;;;;;17.08;100.00;98182.75;4975860;28;20114;-62
2023/09/03 07:01:07;;;;;;;5.43;2.55;;;;;;;17.20;100.00;98189.84;4983475;28;20052;-62
2023/09/03 07:03:34;;;;;;;4.50;2.78;;;;;;;17.30;100.00;98189.84;4969515;28;20514;-62
2023/09/03 07:06:00;;;;;;;4.95;2.67;;;;;;;17.37;100.00;98195.03;4982999;28;20141;-62
2023/09/03 07:08:29;;;;;;;4.60;2.17;;;;;;;17.48;100.00;98201.28;4991358;28;20130;-62
2023/09/03 07:11:00;;;;;;;4.90;2.40;;;;;;;17.55;100.00;98199.09;4976799;28;20704;-62
2023/09/03 07:13:26;;;;;;;4.43;2.47;;;;;;;17.67;100.00;98196.88;4964668;28;20051;-62
2023/09/03 07:15:53;;;;;;;6.60;2.30;;;;;;;17.75;100.00;98194.63;4968186;28;20039;-62
2023/09/03 07:18:19;;;;;;;4.82;2.40;;;;;;;17.84;100.00;98201.19;4994491;28;20047;-62
2023/09/03 07:20:46;;;;;;;4.40;2.35;;;;;;;17.99;100.00;98211.25;4969505;28;20701;-62
2023/09/03 07:23:13;;;;;;;4.75;2.50;;;;;;;18.09;100.00;98204.16;4970978;28;20048;-62
2023/09/03 07:25:41;;;;;;;3.72;2.28;;;;;;;18.17;100.00;98209.84;4960974;28;20676;-62
2023/09/03 07:28:08;;;;;;;3.55;1.98;;;;;;;18.28;100.00;98210.63;4985593;28;20039;-62
2023/09/03 07:30:34;;;;;;;3.95;2.28;;;;;;;18.33;100.00;98210.56;4988054;28;20042;-62
2023/09/03 07:33:01;;;;;;;4.72;2.25;;;;;;;18.48;100.00;98206.13;4971898;28;20119;-62
2023/09/03 07:35:30;;;;;;;5.15;2.28;;;;;;;18.62;100.00;98208.22;5008527;28;20120;-63
2023/09/03 07:37:57;;;;;;;4.50;2.20;;;;;;;18.74;100.00;98216.94;4982527;28;20069;-62
2023/09/03 07:40:24;;;;;;;6.20;2.40;;;;;;;18.83;100.00;98220.69;4981737;28;20586;-62
2023/09/03 07:42:51;;;;;;;5.45;2.60;;;;;;;18.90;100.00;98219.56;4967520;28;20039;-62
2023/09/03 07:45:18;;;;;;;6.25;2.95;;;;;;;18.97;100.00;98228.28;4989448;28;20535;-62
2023/09/03 07:47:44;;;;;;;5.47;3.13;;;;;;;19.07;100.00;98230.97;4976492;28;20087;-62
2023/09/03 07:50:11;;;;;;;5.50;2.22;;;;;;;19.16;100.00;98224.88;5008567;28;20453;-62
2023/09/03 07:52:38;;;;;;;4.60;2.58;;;;;;;19.19;100.00;98233.34;5001899;28;20629;-62
2023/09/03 07:55:05;;;;;;;4.85;3.10;;;;;;;19.26;100.00;98230.28;4981454;28;20478;-62
2023/09/03 07:57:32;;;;;;;5.95;2.47;;;;;;;19.29;100.00;98235.19;4988631;28;20122;-62
2023/09/03 07:59:58;;;;;;;4.22;2.60;;;;;;;19.34;100.00;98226.06;4973946;28;20457;-62
2023/09/03 08:02:25;;;;;;;7.20;3.10;;;;;;;19.43;100.00;98240.00;4990516;28;20065;-63
2023/09/03 08:04:52;;;;;;;7.22;5.30;;;;;;;19.48;100.00;98245.44;4958264;28;20043;-62
2023/09/03 08:07:18;;;;;;;10.98;7.60;;;;;;;19.51;100.00;98239.38;4972629;28;20045;-62
2023/09/03 08:09:46;;;;;;;8.30;6.15;;;;;;;19.56;100.00;98241.25;4970576;28;20040;-62
2023/09/03 08:12:12;;;;;;;17.70;12.75;;;;;;;19.65;100.00;98250.50;4982397;28;20576;-63
2023/09/03 08:14:41;;;;;;;14.98;10.20;;;;;;;19.74;100.00;98250.69;4958189;28;20115;-62
2023/09/03 08:17:08;;;;;;;8.40;5.90;;;;;;;19.81;100.00;98259.41;5004135;28;20789;-62
2023/09/03 08:19:35;;;;;;;6.15;4.15;;;;;;;19.86;100.00;98259.34;4974597;28;20046;-62
2023/09/03 08:22:02;;;;;;;6.05;4.32;;;;;;;19.91;100.00;98260.41;4988211;28;20130;-62
2023/09/03 08:24:29;;;;;;;6.18;4.40;;;;;;;20.00;100.00;98258.66;4961884;28;20043;-62
2023/09/03 08:26:56;;;;;;;7.50;4.22;;;;;;;20.11;100.00;98262.94;4988928;28;20054;-62
2023/09/03 08:29:22;;;;;;;6.07;3.38;;;;;;;20.11;100.00;98262.94;4996103;28;20046;-62
2023/09/03 08:31:49;;;;;;;6.07;3.33;;;;;;;20.18;100.00;98253.50;4972830;28;20054;-62
2023/09/03 08:34:16;;;;;;;6.00;2.80;;;;;;;20.32;100.00;98254.44;4963569;28;20047;-62
2023/09/03 08:36:42;;;;;;;6.03;2.63;;;;;;;20.40;100.00;98253.78;4989069;28;20145;-62
2023/09/03 08:39:09;;;;;;;4.43;2.70;;;;;;;20.48;100.00;98257.81;4961244;28;20124;-62
2023/09/03 08:41:38;;;;;;;4.95;2.67;;;;;;;20.57;100.00;98251.63;4963842;28;20053;-63
2023/09/03 08:44:13;;;;;;;5.18;2.22;;;;;;;20.75;100.00;98250.81;4963463;28;20043;-62
2023/09/03 08:46:42;;;;;;;4.22;2.15;;;;;;;20.82;97.69;98255.16;4971876;28;20043;-63
2023/09/03 08:49:10;;;;;;;4.93;1.80;;;;;;;20.91;98.45;98259.72;4993236;28;20061;-62
2023/09/03 08:51:36;;;;;;;3.15;1.85;;;;;;;21.03;96.13;98261.16;4974919;28;20046;-62
2023/09/03 08:54:05;;;;;;;3.60;1.88;;;;;;;21.09;94.00;98259.16;4963773;28;20038;-62
2023/09/03 08:56:33;;;;;;;5.28;2.08;;;;;;;21.26;93.91;98259.41;4990911;28;20080;-63
2023/09/03 08:59:00;;;;;;;4.15;1.70;;;;;;;21.39;92.62;98271.63;4998666;28;20049;-62
2023/09/03 09:01:30;;;;;;;4.50;1.90;;;;;;;21.37;90.77;98271.09;4977506;28;20061;-62
2023/09/03 09:04:01;;;;;;;4.18;1.60;;;;;;;21.60;90.88;98268.50;4987665;28;20088;-62
2023/09/03 09:06:30;;;;;;;4.93;2.17;;;;;;;21.61;89.41;98278.41;4975192;28;20043;-62
2023/09/03 09:08:58;;;;;;;3.53;2.00;;;;;;;21.66;89.35;98278.31;4970842;28;20035;-62
2023/09/03 09:11:33;;;;;;;3.85;1.50;;;;;;;21.86;89.67;98281.84;4986611;28;20578;-62
2023/09/03 09:14:01;;;;;;;3.25;1.70;;;;;;;22.03;88.99;98292.25;4992076;28;20042;-62
2023/09/03 09:16:27;;;;;;;3.08;1.63;;;;;;;22.06;87.67;98290.81;4989079;28;20651;-62
2023/09/03 09:18:54;;;;;;;2.72;1.50;;;;;;;22.31;87.80;98297.78;4985469;28;20092;-62
2023/09/03 09:21:21;;;;;;;6.10;1.92;;;;;;;22.35;85.98;98292.47;4972637;28;20410;-62
2023/09/03 09:23:48;;;;;;;3.20;1.52;;;;;;;22.30;84.26;98293.38;5001260;28;20043;-62
2023/09/03 09:26:17;;;;;;;4.97;2.05;;;;;;;22.24;84.02;98291.84;4973208;28;20643;-62
2023/09/03 09:28:57;;;;;;;3.25;1.60;;;;;;;22.27;82.78;98293.19;4987272;28;20039;-62
2023/09/03 09:31:32;;;;;;;3.78;1.67;;;;;;;22.32;83.83;98291.13;4987522;28;20134;-62
2023/09/03 09:34:01;;;;;;;3.90;1.52;;;;;;;22.45;84.23;98292.25;4970577;28;20038;-62
2023/09/03 09:36:30;;;;;;;2.60;1.55;;;;;;;22.42;83.58;98300.31;4977706;28;20677;-62
2023/09/03 09:39:05;;;;;;;4.45;1.70;;;;;;;22.44;83.97;98296.13;4986195;28;20476;-62
2023/09/03 09:41:37;;;;;;;2.97;1.63;;;;;;;22.42;82.99;98298.41;4984935;28;20058;-62
2023/09/03 09:44:10;;;;;;;3.40;1.60;;;;;;;22.27;84.60;98295.94;4972178;28;20114;-62
2023/09/03 09:46:38;;;;;;;4.05;1.40;;;;;;;22.35;83.80;98303.50;4977520;28;20066;-62
2023/09/03 09:49:06;;;;;;;4.85;1.48;;;;;;;22.26;84.87;98297.88;4975714;28;20121;-62
2023/09/03 09:51:32;;;;;;;2.55;1.38;;;;;;;22.25;85.47;98309.25;4988690;28;20687;-62
2023/09/03 09:54:03;;;;;;;4.40;1.60;;;;;;;22.42;84.57;98303.91;4971609;28;20039;-63
2023/09/03 09:56:36;;;;;;;5.72;2.08;;;;;;;22.37;84.56;98300.44;4973597;28;20057;-64
2023/09/03 09:59:03;;;;;;;5.22;1.40;;;;;;;22.41;84.66;98304.22;4978224;28;20066;-62
2023/09/03 10:01:43;;;;;;;3.28;1.50;;;;;;;22.39;83.49;98301.75;4987497;28;20059;-62
2023/09/03 10:04:11;;;;;;;4.00;1.65;;;;;;;22.35;82.69;98298.81;4967156;28;20042;-62
2023/09/03 10:06:38;;;;;;;2.63;1.50;;;;;;;22.31;82.49;98299.72;4982494;28;20065;-62
2023/09/03 10:09:05;;;;;;;2.30;1.17;;;;;;;22.33;82.15;98302.97;4988303;28;20113;-62
2023/09/03 10:11:31;;;;;;;2.45;1.48;;;;;;;22.49;83.10;98297.97;4983626;28;20050;-62
2023/09/03 10:13:58;;;;;;;2.42;1.20;;;;;;;22.52;80.50;98305.63;4971720;28;20049;-62
2023/09/03 10:16:25;;;;;;;2.35;1.10;;;;;;;22.55;80.16;98298.72;4991516;28;20128;-62
2023/09/03 10:18:54;;;;;;;1.90;1.05;;;;;;;22.64;78.04;98302.38;4977239;28;20061;-62
2023/09/03 10:21:24;;;;;;;2.15;0.90;;;;;;;22.67;76.95;98292.66;4977458;28;20241;-62
2023/09/03 10:24:15;;;;;;;2.05;1.35;;;;;;;22.80;74.35;98294.56;4967234;28;20127;-62
2023/09/03 10:26:47;;;;;;;1.05;0.73;;;;;;;22.84;73.47;98292.81;4972444;28;20051;-62
2023/09/03 10:29:19;;;;;;;2.65;0.80;;;;;;;22.69;71.70;98291.22;4995594;28;20059;-62
2023/09/03 10:31:48;;;;;;;4.25;1.00;;;;;;;22.68;75.74;98286.00;4987881;28;20088;-61
2023/09/03 10:34:15;;;;;;;2.75;1.08;;;;;;;22.68;76.23;98289.59;4993256;28;20037;-62
2023/09/03 10:37:07;;;;;;;2.40;1.13;;;;;;;22.68;74.37;98281.31;4999656;28;20070;-62
2023/09/03 10:39:35;;;;;;;2.60;1.00;;;;;;;22.83;72.11;98279.31;4988917;28;20051;-62
2023/09/03 10:42:20;;;;;;;1.73;0.70;;;;;;;22.90;72.25;98278.91;4972903;28;20133;-62
2023/09/03 10:44:52;;;;;;;1.83;0.80;;;;;;;22.98;71.83;98276.22;4987015;28;20050;-62
2023/09/03 10:47:19;;;;;;;1.83;0.88;;;;;;;23.21;71.41;98283.69;4985510;28;20511;-62
2023/09/03 10:49:53;;;;;;;1.92;0.80;;;;;;;23.42;70.84;98285.97;4983689;28;20047;-62
2023/09/03 10:52:26;;;;;;;1.63;0.63;;;;;;;23.38;67.77;98283.84;4977538;28;20066;-62
2023/09/03 10:55:19;;;;;;;2.22;1.10;;;;;;;23.45;67.89;98286.19;4985996;28;20054;-62
2023/09/03 10:58:10;;;;;;;1.98;0.70;;;;;;;23.67;67.16;98292.81;4977682;28;20522;-62
2023/09/03 11:00:37;;;;;;;;;;;;;;;23.79;65.92;98286.69;4998726;28;20096;-62
2023/09/03 11:03:17;;;;;;;0.95;0.50;;;;;;;23.89;66.12;98280.84;4993518;28;19928;-62
2023/09/03 11:06:17;;;;;;;2.05;0.85;;;;;;;24.04;63.83;98287.91;4985880;28;20046;-62
2023/09/03 11:08:45;;;;;;;1.08;0.70;;;;;;;24.02;65.21;98284.66;4992869;28;20046;-62
2023/09/03 11:11:19;;;;;;;2.13;0.68;;;;;;;24.12;66.16;98286.38;4984468;28;20528;-62
2023/09/03 11:13:50;;;;;;;1.88;0.77;;;;;;;24.25;65.85;98286.59;4978779;28;20036;-62
2023/09/03 11:16:16;;;;;;;1.60;0.70;;;;;;;24.15;64.48;98285.72;4983043;28;20054;-62
2023/09/03 11:18:49;;;;;;;3.60;1.00;;;;;;;24.04;65.22;98276.06;4975790;28;20054;-62
2023/09/03 11:21:16;;;;;;;1.70;0.77;;;;;;;24.07;64.16;98278.19;4942853;28;20134;-62
2023/09/03 11:24:20;;;;;;;2.33;0.75;;;;;;;24.12;63.48;98278.06;4941751;28;20039;-62
2023/09/03 11:27:03;;;;;;;1.10;0.73;;;;;;;24.29;63.21;98276.50;4983580;28;20048;-62
2023/09/03 11:29:30;;;;;;;2.20;0.82;;;;;;;24.00;64.33;98267.56;4977825;28;20044;-62
2023/09/03 11:31:59;;;;;;;2.05;0.98;;;;;;;24.00;64.13;98272.31;4984625;28;20104;-62
2023/09/03 11:34:29;;;;;;;3.60;0.77;;;;;;;24.10;64.84;98276.75;4970392;28;20046;-62
2023/09/03 11:36:57;;;;;;;1.53;0.67;;;;;;;24.16;65.07;98276.31;4937257;28;20066;-62